East Dennis, MA (02641)

2:21 AM EDT on September 04, 2015 (GMT -0400)
Hazelwood Road | | Change Station
CLOSE
Current Station
Personal Weather Station
Location: South Dennis, MA
Elevation: 41 ft
Nearby Weather Stations

Elev 41 ft 41.71 °N, 70.18 °W | Updated 4 minutes ago

Partly Cloudy
Partly Cloudy
69.9 °F
Feels Like 69.9 °F
N
0.0
Wind Variable Wind from NW
Gusts 0.0 mph

Today
High -- | Low -- °F
--% Chance of Precip.
Yesterday
High -- | Low -- °F
Precip. -- in
6:09 AM 7:09 PM
Waning Gibbous, 63% visible
Pressure 29.93 in
Visibility 4.0 miles
Clouds Clear
Dew Point 69 °F
Humidity 97%
Rainfall 0.00 in
Snow Depth Not available.
UV 0.0 out of 12
Pollen 8.60 out of 12
Air Quality Not available.
Flu Activity Not available.
METAR KHYA 040556Z AUTO 34003KT 4SM BR CLR 22/21 A2992 RMK AO2 SLP133 T02170206 10222 20211 51010
Pressure 29.93 in
Visibility 4.0 miles
Clouds Clear
Dew Point 69 °F
Humidity 97%
Rainfall 0.00 in
Snow Depth Not available.
UV 0.0 out of 12
Pollen 8.60 out of 12
Air Quality Not available.
Flu Activity Not available.
METAR KHYA 040556Z AUTO 34003KT 4SM BR CLR 22/21 A2992 RMK AO2 SLP133 T02170206 10222 20211 51010

10-Day Weather Forecast

×

Almanac

Astronomy

Sep. 04, 2015 Rise Set
Actual Time
Civil Twilight
Nautical Twilight
Astronomical Twilight
Moon
Length of Visible Light
Length of Day
Tomorrow will be .
, % of the Moon is Illuminated

Today's Extremes

State Highs State Lows

Community

WunderPhotos

Upload Photos

1,852,132 photos uploaded!

WunderBlogs® & News

Nearby

Air Quality

  Air Quality AQ Index Pollutant
Not available.

Snow Depth

Station Depth Elevation

Earthquake Activity

City Distance Mag. Time & Date
Minimum magnitude displayed is 2.5.

Coastal Water Temperatures

Place Temperature

Stations

Nearby Weather Stations

Station Location Temp. Windchill Dew Point Humidity Wind Precip. Elev Updated Type